Gaithersburg, MD (20886)

7:40 AM EST on March 05, 2015 (GMT -0500)
KMDGAITH12 | Change Station
CLOSE
Current Station
Personal Weather Station
Location: Gaithersburg, MD
Elevation: 467 ft
Nearby Weather Stations
Active Advisory: Winter Storm Warning

Elev 467 ft 39.16 °N, 77.18 °W | Updated 6 minutes ago

Overcast
Overcast
30.8 °F
Feels Like 31 °F
N
1.0
Wind Variable Wind from NW
Gusts 6.0 mph

Today
High -- | Low -- °F
--% Chance of Precip.
Yesterday
High -- | Low -- °F
Precip. -- in
6:35 AM 6:05 PM
Full, 100% visible
Pressure 30.12 in
Visibility 0.8 miles
Clouds Mostly Cloudy 900 ft
Overcast 1300 ft
Windchill 31 °F
Dew Point 30 °F
Humidity 95%
Rainfall in
Snow Depth Not available.
UV 0 out of 12
Pollen .70 out of 12
Air Quality Not available.
Flu Activity Not available.
METAR KGAI 051235Z AUTO 35006KT 3/4SM BKN009 OVC013 M01/M02 A3012 RMK AO1

More Conditions Fewer Conditions

Pressure 30.12 in
Visibility 0.8 miles
Clouds Mostly Cloudy 900 ft
Overcast 1300 ft
Windchill 31 °F
Dew Point 30 °F
Humidity 95%
Rainfall in
Snow Depth Not available.
UV 0 out of 12
Pollen .70 out of 12
Air Quality Not available.
Flu Activity Not available.
METAR KGAI 051235Z AUTO 35006KT 3/4SM BKN009 OVC013 M01/M02 A3012 RMK AO1

More Conditions Fewer Conditions

10-Day Weather Forecast

Almanac

Astronomy

Mar. 05, 2015 Rise Set
Actual Time
Civil Twilight
Nautical Twilight
Astronomical Twilight
Moon
Length of Visible Light
Length of Day
Tomorrow will be .
, % of the Moon is Illuminated

Today's Extremes

State Highs State Lows

Community

WunderPhotos

Upload Photos

1,802,737 photos uploaded!

WunderBlogs® & News

Nearby

Air Quality

  Air Quality AQ Index Pollutant
Not available.

Snow Depth

Station Depth Elevation

Earthquake Activity

City Distance Mag. Time & Date
Minimum magnitude displayed is 2.5.

Coastal Water Temperatures

Place Temperature

Nearby Weather Stations

Winter Storm Warning
Statement as of 3:53 AM EST on March 05, 2015

... Winter Storm Warning remains in effect until 7 PM EST this
evening...

* precipitation types... wintry mix onset around midnight... then
snow... heavy at times.

* Accumulations... 4 to 8 inches of snow.

* Timing... rain changes to wintry mix early this morning... then
all snow through today. Snow heaviest from mid morning until mid
afternoon.

* Temperatures... in the lower 30s... dropping into the lower 20s.

* Winds... north 10 to 15 mph with gusts to 20 mph.

* Impacts... roads will become snow covered and visibility will
drop to a quarter mile... making travel dangerous.

Precautionary/preparedness actions...

A Winter Storm Warning for heavy snow means severe winter weather
conditions are expected or occurring. Significant amounts of snow
are forecast that will make travel dangerous. Only travel in an
emergency. If you must travel... keep an extra flashlight...
food... and water in your vehicle in case of an emergency.